Time;durP1;ratioP1;P1;durP2;ratioP2;P2;SDS_P1;SDS_P2;PMS_P1;PMS_P2;Temp;Humidity;BMP_temperature;BMP_pressure;BME280_temperature;BME280_humidity;BME280_pressure;Samples;Min_cycle;Max_cycle;Signal;HPM_P1;HPM_P2
2023/03/17 00:00:33;;;;;;;11.38;7.00;;;;;;;;;;5114783;28;20043;-73
2023/03/17 00:03:00;;;;;;;10.10;6.55;;;;;;;;;;5114922;28;20083;-73
2023/03/17 00:05:29;;;;;;;14.15;7.00;;;;;;;;;;5114969;28;20384;-73
2023/03/17 00:07:59;;;;;;;8.40;5.95;;;;;;;;;;5114781;27;20031;-72
2023/03/17 00:10:25;;;;;;;13.15;6.82;;;;;;;;;;5115146;27;20031;-73
2023/03/17 00:12:54;;;;;;;10.48;6.80;;;;;;;;;;5097901;28;20062;-73
2023/03/17 00:15:21;;;;;;;9.45;6.13;;;;;;;;;;5111961;28;20031;-73
2023/03/17 00:17:47;;;;;;;11.10;6.50;;;;;;;;;;5114800;28;20092;-73
2023/03/17 00:20:34;;;;;;;13.30;6.82;;;;;;;;;;5114418;28;20031;-73
2023/03/17 00:23:03;;;;;;;14.63;7.13;;;;;;;;;;5114244;28;20066;-73
2023/03/17 00:25:30;;;;;;;9.95;6.80;;;;;;;;;;5114654;28;20094;-73
2023/03/17 00:27:59;;;;;;;8.00;6.03;;;;;;;;;;5114637;28;20054;-73
2023/03/17 00:30:26;;;;;;;11.40;6.85;;;;;;;;;;5098097;28;20043;-74
2023/03/17 00:32:57;;;;;;;12.38;7.07;;;;;;;;;;5112531;28;20111;-73
2023/03/17 00:35:24;;;;;;;11.07;6.38;;;;;;;;;;5120554;27;20031;-73
2023/03/17 00:37:52;;;;;;;9.85;5.93;;;;;;;;;;5120739;27;20042;-73
2023/03/17 00:40:20;;;;;;;9.05;6.55;;;;;;;;;;5116867;27;20039;-73
2023/03/17 00:42:46;;;;;;;11.05;6.55;;;;;;;;;;5134126;27;20368;-74
2023/03/17 00:45:13;;;;;;;10.20;6.28;;;;;;;;;;5101864;27;20118;-73
2023/03/17 00:47:39;;;;;;;10.52;6.97;;;;;;;;;;5118697;27;20047;-73
2023/03/17 00:50:06;;;;;;;10.57;6.70;;;;;;;;;;5118390;27;20053;-73
2023/03/17 00:52:32;;;;;;;9.43;6.70;;;;;;;;;;5118532;27;20376;-73
2023/03/17 00:54:59;;;;;;;11.48;7.00;;;;;;;;;;5084391;27;20115;-73
2023/03/17 00:57:25;;;;;;;12.02;6.43;;;;;;;;;;5101574;27;20131;-72
2023/03/17 00:59:51;;;;;;;9.73;6.15;;;;;;;;;;5101077;27;20498;-73
2023/03/17 01:02:17;;;;;;;9.02;5.90;;;;;;;;;;5118445;27;20035;-73
2023/03/17 01:04:44;;;;;;;10.13;6.30;;;;;;;;;;5118369;27;20061;-73
2023/03/17 01:07:12;;;;;;;11.10;6.53;;;;;;;;;;5118097;27;20077;-73
2023/03/17 01:09:38;;;;;;;12.43;5.85;;;;;;;;;;5117844;27;20093;-73
2023/03/17 01:12:05;;;;;;;14.68;6.05;;;;;;;;;;5100880;27;20497;-73
2023/03/17 01:14:31;;;;;;;9.18;6.63;;;;;;;;;;5118229;27;20033;-73
2023/03/17 01:16:58;;;;;;;9.95;5.57;;;;;;;;;;5117875;27;20039;-73
2023/03/17 01:19:24;;;;;;;9.80;5.70;;;;;;;;;;5118315;27;20031;-73
2023/03/17 01:21:51;;;;;;;9.68;6.30;;;;;;;;;;5100820;27;20031;-73
2023/03/17 01:24:17;;;;;;;8.75;5.10;;;;;;;;;;5124165;27;20117;-73
2023/03/17 01:26:43;;;;;;;10.57;6.47;;;;;;;;;;5133846;27;20071;-73
2023/03/17 01:29:10;;;;;;;8.68;5.53;;;;;;;;;;5117640;27;20078;-73
2023/03/17 01:31:36;;;;;;;10.95;5.72;;;;;;;;;;5117895;27;20066;-73
2023/03/17 01:34:03;;;;;;;8.45;5.63;;;;;;;;;;5117496;27;20483;-73
2023/03/17 01:36:29;;;;;;;10.85;5.68;;;;;;;;;;5117502;27;20035;-73
2023/03/17 01:38:56;;;;;;;10.77;5.72;;;;;;;;;;5117037;27;20040;-73
2023/03/17 01:41:22;;;;;;;9.63;5.68;;;;;;;;;;5116802;27;20172;-73
2023/03/17 01:43:48;;;;;;;8.52;5.80;;;;;;;;;;5117216;27;20031;-73
2023/03/17 01:46:14;;;;;;;8.82;5.68;;;;;;;;;;5116860;27;20035;-73
2023/03/17 01:49:20;;;;;;;9.55;6.20;;;7.80;99.90;;;;;;5117098;27;20175;-73
2023/03/17 01:51:50;;;;;;;10.27;5.55;;;;;;;;;;5121735;27;20043;-71
2023/03/17 01:54:36;;;;;;;8.75;5.70;;;;;;;;;;5116536;27;20074;-74
2023/03/17 01:57:08;;;;;;;8.18;5.55;;;;;;;;;;5117207;27;20416;-73
2023/03/17 01:59:36;;;;;;;10.27;4.97;;;;;;;;;;5113418;28;20051;-74
2023/03/17 02:02:05;;;;;;;8.95;5.80;;;;;;;;;;5113768;28;20285;-73
2023/03/17 02:04:31;;;;;;;8.75;5.82;;;;;;;;;;5113563;28;20036;-74
2023/03/17 02:06:57;;;;;;;14.88;6.43;;;;;;;;;;5113398;28;20130;-74
2023/03/17 02:09:24;;;;;;;8.77;5.53;;;;;;;;;;5113675;28;20118;-73
2023/03/17 02:11:50;;;;;;;12.10;5.72;;;;;;;;;;5113229;28;20039;-73
2023/03/17 02:14:16;;;;;;;9.05;5.43;;;;;;;;;;5113386;28;20126;-73
2023/03/17 02:16:44;;;;;;;10.77;5.47;;;;;;;;;;5113351;28;20075;-74
2023/03/17 02:19:10;;;;;;;7.93;5.03;;;;;;;;;;5113176;28;20042;-74
2023/03/17 02:21:41;;;;;;;7.88;5.25;;;;;;;;;;5112964;28;20073;-73
2023/03/17 02:24:09;;;;;;;10.25;5.72;;;;;;;;;;5112959;28;20031;-74
2023/03/17 02:26:36;;;;;;;8.15;5.30;;;;;;;;;;5112976;28;20047;-74
2023/03/17 02:29:04;;;;;;;8.40;5.60;;;;;;;;;;5110710;28;20361;-74
2023/03/17 02:31:30;;;;;;;9.75;5.15;;;;;;;;;;5113478;28;20046;-73
2023/03/17 02:33:56;;;;;;;10.57;5.47;;;;;;;;;;5113132;28;20039;-73
2023/03/17 02:36:22;;;;;;;8.20;5.40;;;;;;;;;;5112901;28;20111;-73
2023/03/17 02:38:49;;;;;;;7.40;5.15;;;;;;;;;;5112603;28;20040;-73
2023/03/17 02:41:15;;;;;;;9.23;5.20;;;;;;;;;;5113027;28;20076;-74
2023/03/17 02:43:41;;;;;;;10.13;5.55;;;;;;;;;;5112912;28;20045;-74
2023/03/17 02:46:08;;;;;;;7.78;4.90;;;;;;;;;;5095745;28;20501;-74
2023/03/17 02:48:35;;;;;;;9.18;5.40;;;;;;;;;;5109792;28;20077;-74
2023/03/17 02:51:01;;;;;;;9.23;5.38;;;;;;;;;;5112537;28;20461;-73
2023/03/17 02:53:27;;;;;;;11.15;5.20;;;;;;;;;;5095726;28;20035;-74
2023/03/17 02:55:54;;;;;;;8.60;5.50;;;;;;;;;;5112863;28;20410;-74
2023/03/17 02:58:20;;;;;;;9.00;5.93;;;;;;;;;;5101794;28;20403;-74
2023/03/17 03:00:46;;;;;;;9.60;5.72;;;;;;;;;;5092357;28;20055;-74
2023/03/17 03:03:12;;;;;;;13.10;5.90;;;;;;;;;;5091963;28;20077;-74
2023/03/17 03:05:38;;;;;;;11.25;6.32;;;;;;;;;;5092241;28;20044;-74
2023/03/17 03:08:04;;;;;;;10.30;5.70;;;;;;;;;;5092189;28;20048;-74
2023/03/17 03:10:31;;;;;;;9.57;5.65;;;;;;;;;;5089477;28;20074;-75
2023/03/17 03:12:57;;;;;;;11.35;5.65;;;;;;;;;;5075198;28;20043;-74
2023/03/17 03:15:23;;;;;;;8.05;5.63;;;;;;;;;;5092620;28;20131;-74
2023/03/17 03:17:50;;;;;;;11.00;5.35;;;;;;;;;;5074095;28;20388;-74
2023/03/17 03:20:17;;;;;;;9.45;6.10;;;;;;;;;;5091664;28;20032;-74
2023/03/17 03:22:43;;;;;;;8.90;5.72;;;;;;;;;;5088512;28;20539;-74
2023/03/17 03:25:09;;;;;;;14.35;5.45;;;;;;;;;;5074490;28;20340;-74
2023/03/17 03:27:35;;;;;;;9.77;5.65;;;;;;;;;;5091300;28;20051;-74
2023/03/17 03:30:01;;;;;;;9.32;5.40;;;;;;;;;;5091280;28;20071;-74
2023/03/17 03:32:27;;;;;;;7.25;5.10;;;;;;;;;;5091697;28;20434;-74
2023/03/17 03:34:53;;;;;;;11.05;6.13;;;;;;;;;;5074271;28;20047;-74
2023/03/17 03:37:20;;;;;;;7.70;5.22;;;;;;;;;;5091647;28;20042;-74
2023/03/17 03:39:46;;;;;;;10.57;5.82;;;;;;;;;;5091447;28;20048;-74
2023/03/17 03:42:12;;;;;;;8.07;5.35;;;;;;;;;;5091445;28;20043;-74
2023/03/17 03:44:38;;;;;;;8.27;5.45;;;;;;;;;;5092677;28;20040;-73
2023/03/17 03:47:05;;;;;;;9.27;5.60;;;;;;;;;;5093493;28;20177;-74
2023/03/17 03:49:31;;;;;;;8.40;5.47;;;;;;;;;;5092083;28;20065;-75
2023/03/17 03:51:57;;;;;;;10.00;5.78;;;;;;;;;;5091009;28;20557;-74
2023/03/17 03:54:23;;;;;;;10.68;5.90;;;;;;;;;;5074348;28;20034;-74
2023/03/17 03:56:49;;;;;;;8.18;5.35;;;;;;;;;;5091087;28;20043;-74
2023/03/17 03:59:15;;;;;;;8.32;5.45;;;;;;;;;;5108482;28;20522;-74
2023/03/17 04:01:41;;;;;;;12.25;5.70;;;;;;;;;;5094440;28;20032;-74
2023/03/17 04:04:07;;;;;;;8.30;5.55;;;;;;;;;;5111828;28;20054;-74
2023/03/17 04:06:33;;;;;;;7.72;5.65;;;;;;;;;;5111347;28;20059;-74
2023/03/17 04:08:59;;;;;;;12.02;5.80;;;;;;;;;;5110938;28;20038;-74
2023/03/17 04:11:26;;;;;;;9.25;5.55;;;;;;;;;;5094486;28;20504;-74
2023/03/17 04:13:52;;;;;;;11.88;5.65;;;;;;;;;;5111323;28;20052;-74
2023/03/17 04:16:18;;;;;;;9.85;5.28;;;;;;;;;;5111074;28;20048;-74
2023/03/17 04:18:44;;;;;;;9.63;5.80;;;;;;;;;;5111290;28;20110;-74
2023/03/17 04:21:12;;;;;;;11.32;6.15;;;;;;;;;;5111691;28;20039;-74
2023/03/17 04:23:38;;;;;;;9.20;5.43;;;;;;;;;;5111398;28;20503;-74
2023/03/17 04:26:04;;;;;;;9.73;6.47;;;;;;;;;;5094357;28;20040;-74
2023/03/17 04:28:30;;;;;;;9.93;5.78;;;;;;;;;;5111034;28;20043;-74
2023/03/17 04:30:57;;;;;;;9.93;5.60;;;;;;;;;;5110982;28;20097;-74
2023/03/17 04:33:23;;;;;;;11.18;6.40;;;;;;;;;;5111062;28;20127;-74
2023/03/17 04:35:49;;;;;;;9.38;5.30;;;;;;;;;;5110866;28;20096;-74
2023/03/17 04:38:15;;;;;;;8.30;5.63;;;;;;;;;;5111392;28;20387;-74
2023/03/17 04:40:41;;;;;;;10.13;5.53;;;;;;;;;;5110053;28;20038;-74
2023/03/17 04:43:09;;;;;;;9.48;5.68;;;;;;;;;;5111255;28;20077;-74
2023/03/17 04:45:35;;;;;;;7.80;5.20;;;;;;;;;;5111209;28;20039;-74
2023/03/17 04:48:01;;;;;;;8.93;5.03;;;;;;;;;;5110926;28;20042;-74
2023/03/17 04:50:27;;;;;;;8.98;5.80;;;;;;;;;;5110938;28;20040;-74
2023/03/17 04:52:54;;;;;;;8.43;5.40;;;;;;;;;;5111217;28;20109;-74
2023/03/17 04:55:20;;;;;;;11.32;5.60;;;;;;;;;;5111097;28;20035;-72
2023/03/17 04:57:46;;;;;;;10.65;5.50;;;;;;;;;;5111187;28;20131;-74
2023/03/17 05:00:14;;;;;;;8.23;5.70;;;;;;;;;;5110811;28;20483;-74
2023/03/17 05:02:40;;;;;;;10.00;6.15;;;;;;;;;;5111368;28;20035;-74
2023/03/17 05:05:06;;;;;;;8.27;5.57;;;;;;;;;;5077366;28;20118;-74
2023/03/17 05:07:32;;;;;;;8.98;5.50;;;;;;;;;;5110975;28;20119;-74
2023/03/17 05:09:59;;;;;;;8.43;5.75;;;;;;;;;;5111055;28;20054;-74
2023/03/17 05:12:25;;;;;;;12.10;6.22;;;;;;;;;;5109317;28;20035;-74
2023/03/17 05:14:51;;;;;;;9.40;5.93;;;;;;;;;;5111056;28;20077;-74
2023/03/17 05:17:17;;;;;;;13.50;5.90;;;;;;;;;;5094063;28;20069;-74
2023/03/17 05:19:43;;;;;;;8.30;5.40;;;;;;;;;;5111062;28;20337;-74
2023/03/17 05:22:10;;;;;;;10.43;5.68;;;;;;;;;;5113298;28;20119;-74
2023/03/17 05:24:36;;;;;;;8.00;5.57;;;;;;;;;;5114427;28;20039;-74
2023/03/17 05:27:02;;;;;;;11.57;5.97;;;;;;;;;;5114242;28;20471;-74
2023/03/17 05:29:28;;;;;;;8.90;5.10;;;;;;;;;;5114334;28;20051;-74
2023/03/17 05:31:54;;;;;;;9.80;5.72;;;;;;;;;;5114482;28;20072;-74
2023/03/17 05:34:21;;;;;;;9.75;5.80;;;;;;;;;;5114043;28;20035;-74
2023/03/17 05:36:47;;;;;;;9.43;5.68;;;;;;;;;;5113952;28;20126;-74
2023/03/17 05:39:13;;;;;;;12.00;6.22;;;;;;;;;;5113670;28;20501;-74
2023/03/17 05:41:39;;;;;;;12.27;5.47;;;;;;;;;;5114176;28;20126;-74
2023/03/17 05:44:05;;;;;;;10.80;6.07;;;;;;;;;;5096918;28;20499;-74
2023/03/17 05:46:31;;;;;;;8.27;5.82;;;;;;;;;;5113803;28;20027;-74
2023/03/17 05:48:57;;;;;;;8.13;5.60;;;;;;;;;;5113678;28;20036;-74
2023/03/17 05:51:23;;;;;;;10.93;6.00;;;;;;;;;;5114043;28;20126;-74
2023/03/17 05:53:49;;;;;;;11.93;6.43;;;;;;;;;;5113658;28;20552;-74
2023/03/17 05:56:16;;;;;;;10.95;6.00;;;;;;;;;;5113727;28;20043;-74
2023/03/17 05:58:42;;;;;;;8.02;5.68;;;;;;;;;;5127411;27;20051;-74
2023/03/17 06:01:08;;;;;;;10.13;5.63;;;;;;;;;;5117370;27;20108;-74
2023/03/17 06:03:37;;;;;;;9.55;5.47;;;;;;;;;;5116481;27;20483;-74
2023/03/17 06:06:03;;;;;;;12.13;5.88;;;;;;;;;;5116716;27;20046;-75
2023/03/17 06:08:30;;;;;;;10.95;5.65;;;;;;;;;;5116860;27;20087;-75
2023/03/17 06:10:56;;;;;;;15.05;7.18;;;;;;;;;;5114364;27;20168;-75
2023/03/17 06:13:22;;;;;;;11.52;5.95;;;;;;;;;;5126491;27;20046;-74
2023/03/17 06:15:52;;;;;;;10.93;6.28;;;;;;;;;;5117351;27;20035;-74
2023/03/17 06:18:18;;;;;;;11.55;5.68;;;;;;;;;;5117767;27;20046;-74
2023/03/17 06:20:45;;;;;;;9.13;6.38;;;;;;;;;;5121366;27;20052;-74
2023/03/17 06:23:11;;;;;;;9.82;5.95;;;;;;;;;;5117408;27;20046;-73
2023/03/17 06:25:38;;;;;;;8.82;5.85;;;;;;;;;;5117976;27;20046;-75
2023/03/17 06:28:04;;;;;;;17.05;6.40;;;;;;;;;;5117665;27;20046;-74
2023/03/17 06:30:31;;;;;;;11.30;6.07;;;;;;;;;;5118006;27;20042;-74
2023/03/17 06:32:58;;;;;;;25.70;7.35;;;;;;;;;;5117465;27;20043;-73
2023/03/17 06:35:24;;;;;;;11.02;6.15;;;;;;;;;;5117476;27;20039;-74
2023/03/17 06:37:51;;;;;;;10.75;6.15;;;;;;;;;;5100697;27;20356;-72
2023/03/17 06:40:17;;;;;;;11.52;6.20;;;;;;;;;;5118234;27;20043;-73
2023/03/17 06:42:43;;;;;;;10.07;5.63;;;;;;;;;;5100391;27;20450;-73
2023/03/17 06:45:09;;;;;;;11.32;5.57;;;;;;;;;;5132980;27;20124;-67
2023/03/17 06:47:38;;;;;;;10.48;6.22;;;;;;;;;;5117156;27;20517;-67
2023/03/17 06:50:05;;;;;;;9.07;5.35;;;;;;;;;;5119053;27;20043;-67
2023/03/17 06:52:31;;;;;;;10.20;5.80;;;;;;;;;;5100329;27;20479;-67
2023/03/17 06:54:57;;;;;;;8.38;5.20;;;;;;;;;;5138764;27;20061;-68
2023/03/17 06:57:23;;;;;;;9.73;5.30;;;;;;;;;;5116833;27;20043;-67
2023/03/17 06:59:49;;;;;;;9.63;5.57;;;;;;;;;;5083137;27;20093;-67
2023/03/17 07:02:15;;;;;;;8.07;5.22;;;;;;;;;;5116477;27;20039;-67
2023/03/17 07:04:41;;;;;;;8.35;5.13;;;;;;;;;;5149198;27;20390;-68
2023/03/17 07:07:08;;;;;;;9.95;5.50;;;;;;;;;;5116985;27;20097;-67
2023/03/17 07:09:34;;;;;;;8.50;5.50;;;;;;;;;;5116183;27;20042;-67
2023/03/17 07:12:04;;;;;;;12.82;5.97;;;;;;;;;;5116199;27;20035;-67
2023/03/17 07:14:34;;;;;;;10.73;5.43;;;;;;;;;;5116071;27;20031;-68
2023/03/17 07:17:02;;;;;;;16.50;5.88;;;;;;;;;;5116361;27;20047;-67
2023/03/17 07:19:28;;;;;;;8.40;5.60;;;;;;;;;;5098474;27;20042;-70
2023/03/17 07:21:55;;;;;;;8.80;5.82;;;;;;;;;;5141431;27;20032;-68
2023/03/17 07:24:21;;;;;;;10.10;5.70;;;;;;;;;;5097796;27;20035;-70
2023/03/17 07:26:48;;;;;;;10.57;5.63;;;;;;;;;;5115336;27;20574;-68
2023/03/17 07:29:14;;;;;;;10.10;5.90;;;;;;;;;;5123060;27;20054;-68
2023/03/17 07:31:40;;;;;;;9.27;5.90;;;;;;;;;;5115195;27;20555;-68
2023/03/17 07:34:06;;;;;;;10.85;5.88;;;;;;;;;;5115070;27;20596;-68
2023/03/17 07:36:33;;;;;;;9.18;5.70;;;;;;;;;;5125767;27;20039;-68
2023/03/17 07:39:00;;;;;;;9.50;5.65;;;;;;;;;;5115235;27;20078;-68
2023/03/17 07:41:27;;;;;;;9.48;5.07;;;;;;;;;;5143319;27;20038;-67
2023/03/17 07:43:53;;;;;;;24.92;7.95;;;;;;;;;;5141586;27;20472;-68
2023/03/17 07:46:20;;;;;;;10.25;5.30;;;;;;;;;;5114282;27;20046;-68
2023/03/17 07:48:46;;;;;;;9.60;5.07;;;;;;;;;;5114921;27;20043;-68
2023/03/17 07:51:13;;;;;;;8.63;5.35;;;;;;;;;;5114507;27;20114;-68
2023/03/17 07:53:40;;;;;;;7.93;5.10;;;;;;;;;;5132966;27;20406;-69
2023/03/17 07:56:07;;;;;;;10.73;5.45;;;;;;;;;;5123372;27;20039;-68
2023/03/17 07:58:33;;;;;;;8.98;5.70;;;;;;;;;;5105916;28;20131;-68
2023/03/17 08:01:00;;;;;;;11.00;5.45;;;;;;;;;;5114631;28;20046;-70
2023/03/17 08:03:26;;;;;;;9.68;5.43;;;;;;;;;;5113762;28;20518;-68
2023/03/17 08:05:54;;;;;;;14.98;5.65;;;;;;;;;;5113647;28;20035;-68
2023/03/17 08:08:21;;;;;;;13.25;5.97;;;;;;;;;;5140685;27;20042;-69
2023/03/17 08:10:48;;;;;;;9.85;6.32;;;;;;;;;;5114282;28;20424;-67
2023/03/17 08:13:14;;;;;;;8.77;5.47;;;;;;;;;;5114834;28;20096;-67
2023/03/17 08:15:40;;;;;;;12.05;5.88;;;;;;;;;;5107483;27;20118;-67
2023/03/17 08:18:06;;;;;;;9.80;5.25;;;;;;;;;;5114601;28;20042;-67
2023/03/17 08:20:33;;;;;;;13.13;5.82;;;;;;;;;;5133480;27;20039;-68
2023/03/17 08:22:59;;;;;;;9.00;5.45;;;;;;;;;;5115290;28;20122;-68
2023/03/17 08:25:25;;;;;;;10.80;6.00;;;;;;;;;;5114674;28;20129;-68
2023/03/17 08:27:52;;;;;;;9.13;5.38;;;;;;;;;;5115342;27;20136;-67
2023/03/17 08:30:19;;;;;;;9.38;5.03;;;;;;;;;;5114625;27;20474;-67
2023/03/17 08:32:46;;;;;;;9.07;5.70;;;;;;;;;;5115619;28;20072;-67
2023/03/17 08:35:17;;;;;;;8.20;5.32;;;;;;;;;;5114541;28;20510;-67
2023/03/17 08:37:43;;;;;;;8.77;5.25;;;;;;;;;;5121893;28;20067;-67
2023/03/17 08:40:11;;;;;;;14.32;6.05;;;;;;;;;;5114040;28;20039;-67
2023/03/17 08:42:37;;;;;;;10.35;4.63;;;;;;;;;;5111977;27;20114;-67
2023/03/17 08:45:05;;;;;;;10.50;5.15;;;;;;;;;;5127803;28;20036;-68
2023/03/17 08:47:32;;;;;;;9.48;4.85;;;;;;;;;;5130928;27;20043;-67
2023/03/17 08:49:59;;;;;;;6.43;5.00;;;;;;;;;;5112219;28;20042;-67
2023/03/17 08:52:26;;;;;;;7.63;5.03;;;;;;;;;;5113841;28;20043;-67
2023/03/17 08:54:53;;;;;;;9.45;4.70;;;;;;;;;;5113784;27;20038;-67
2023/03/17 08:57:19;;;;;;;7.35;4.55;;;;;;;;;;5118000;27;20045;-68
2023/03/17 08:59:45;;;;;;;8.52;4.60;;;;;;;;;;5134136;27;20039;-67
2023/03/17 09:02:11;;;;;;;8.35;5.05;;;;;;;;;;5117637;27;20035;-67
2023/03/17 09:04:38;;;;;;;11.02;5.18;;;;;;;;;;5118039;27;20136;-68
2023/03/17 09:07:05;;;;;;;9.85;5.15;;;;;;;;;;5118186;27;20049;-67
2023/03/17 09:09:35;;;;;;;6.93;4.55;;;;;;;;;;5117565;27;20126;-67
2023/03/17 09:12:01;;;;;;;9.15;4.55;;;;;;;;;;5117740;27;20111;-67
2023/03/17 09:14:28;;;;;;;10.45;5.32;;;;;;;;;;5117778;27;20039;-68
2023/03/17 09:16:54;;;;;;;9.82;4.88;;;;;;;;;;5100718;27;20752;-67
2023/03/17 09:19:20;;;;;;;10.98;5.18;;;;;;;;;;5118053;27;20111;-67
2023/03/17 09:21:47;;;;;;;8.00;4.65;;;;;;;;;;5117558;27;20035;-67
2023/03/17 09:24:13;;;;;;;7.43;5.03;;;;;;;;;;5117957;27;20031;-70
2023/03/17 09:26:39;;;;;;;9.13;4.93;;;;;;;;;;5117716;27;20031;-68
2023/03/17 09:29:06;;;;;;;9.88;5.30;;;;;;;;;;5100766;27;20054;-67
2023/03/17 09:31:32;;;;;;;12.38;5.43;;;;;;;;;;5117420;27;20035;-72
2023/03/17 09:33:59;;;;;;;12.23;5.57;;;;;;;;;;5113354;27;20490;-67
2023/03/17 09:36:25;;;;;;;9.65;4.82;;;;;;;;;;5117027;27;20079;-66
2023/03/17 09:38:51;;;;;;;11.65;5.53;;;;;;;;;;5099643;27;20031;-67
2023/03/17 09:41:22;;;;;;;6.75;4.88;;;;;;;;;;5135038;27;20031;-66
2023/03/17 09:44:07;;;;;;;13.57;4.90;;;;;;;;;;5100579;27;20058;-70
2023/03/17 09:46:33;;;;;;;10.60;5.50;;;;;;;;;;5100898;27;20055;-71
2023/03/17 09:49:06;;;;;;;10.98;5.35;;;;;;;;;;5117197;27;20125;-66
2023/03/17 09:51:34;;;;;;;10.27;5.72;;;;;;;;;;5116020;27;20107;-66
2023/03/17 09:54:06;;;;;;;13.73;5.50;;;;;;;;;;5117058;27;20039;-66
2023/03/17 09:56:34;;;;;;;12.20;5.70;;;;;;;;;;5116788;27;20042;-66
2023/03/17 09:59:13;;;;;;;8.23;5.30;;;;;;;;;;5116997;27;20487;-66
2023/03/17 10:01:41;;;;;;;10.27;5.78;;;;;;;;;;5099910;27;20039;-67
2023/03/17 10:04:08;;;;;;;8.05;4.80;;;;;;;;;;5116871;27;20039;-66
2023/03/17 10:06:41;;;;;;;16.02;5.88;;;;;;;;;;5116117;27;20069;-67
2023/03/17 10:09:26;;;;;;;10.15;5.47;;;;;;;;;;5116861;27;20072;-67
2023/03/17 10:12:01;;;;;;;13.45;5.75;;;;;;;;;;5099467;27;20034;-67
2023/03/17 10:14:46;;;;;;;8.23;5.63;;;;;;;;;;5116755;27;20102;-72
2023/03/17 10:17:15;;;;;;;11.95;6.00;;;;;;;;;;5116495;27;20527;-72
2023/03/17 10:19:47;;;;;;;16.25;6.30;;;;;;;;;;5116633;27;20336;-72
2023/03/17 10:22:24;;;;;;;9.73;5.50;;;;;;;;;;5117172;27;20038;-72
2023/03/17 10:24:56;;;;;;;13.70;6.40;;;;;;;;;;5099602;27;20043;-71
2023/03/17 10:27:22;;;;;;;11.68;6.13;;;;;;;;;;5151733;27;20042;-71
2023/03/17 10:29:48;;;;;;;9.40;5.43;;;;;;;;;;5117574;27;20042;-72
2023/03/17 10:32:15;;;;;;;12.40;6.28;;;;;;;;;;5117776;27;20039;-71
2023/03/17 10:34:41;;;;;;;12.07;6.28;;;;;;;;;;5134720;27;20468;-71
2023/03/17 10:37:19;;;;;;;13.45;6.05;;;;;;;;;;5117413;27;20074;-71
2023/03/17 10:39:53;;;;;;;11.48;6.63;;;;;;;;;;5117070;27;20182;-71
2023/03/17 10:42:23;;;;;;;13.13;6.38;;;;;;;;;;5117123;27;20042;-71
2023/03/17 10:44:51;;;;;;;16.65;6.68;;;;;;;;;;5117682;27;20391;-71
2023/03/17 10:47:31;;;;;;;18.60;7.28;;;;;;;;;;5117564;27;20065;-71
2023/03/17 10:50:01;;;;;;;19.58;6.65;;;;;;;;;;5129756;27;20114;-71
2023/03/17 10:52:32;;;;;;;15.65;7.13;;;;;;;;;;5116724;27;20517;-71
2023/03/17 10:55:05;;;;;;;12.45;6.95;;;;;;;;;;5116784;27;20452;-71
2023/03/17 10:57:31;;;;;;;13.15;6.45;;;;;;;;;;5116500;27;20492;-71
2023/03/17 10:59:59;;;;;;;12.05;6.72;;;;;;;;;;5116460;27;20035;-72
2023/03/17 11:02:28;;;;;;;16.63;6.60;;;;;;;;;;5117174;27;20383;-72
2023/03/17 11:04:58;;;;;;;9.55;6.63;;;;;;;;;;5116256;27;20043;-72
2023/03/17 11:07:38;;;;;;;14.10;7.32;;;;;;;;;;5117076;27;20043;-72
2023/03/17 11:10:14;;;;;;;12.00;7.55;;;;;;;;;;5115902;27;20035;-72
2023/03/17 11:12:41;;;;;;;16.42;8.25;;;;;;;;;;5114374;27;20035;-72
2023/03/17 11:15:11;;;;;;;12.20;7.10;;;;;;;;;;5113587;27;20043;-72
2023/03/17 11:17:58;;;;;;;12.40;6.88;;;;;;;;;;5114523;27;20053;-72
2023/03/17 11:20:28;;;;;;;12.18;7.55;;;;;;;;;;5114168;27;20095;-72
2023/03/17 11:22:59;;;;;;;13.25;7.47;;;;;;;;;;5096971;27;20074;-67
2023/03/17 11:25:26;;;;;;;12.43;6.68;;;;;;;;;;5113629;27;20080;-66
2023/03/17 11:27:52;;;;;;;15.68;7.05;;;;;;;;;;5114964;27;20043;-66
2023/03/17 11:30:18;;;;;;;15.23;6.93;;;;;;;;;;5114903;27;20118;-67
2023/03/17 11:32:55;;;;;;;18.13;7.47;;;;;;;;;;5115082;27;20080;-66
2023/03/17 11:35:40;;;;;;;13.05;7.32;;;;;;;;;;5115046;27;20103;-66
2023/03/17 11:38:21;;;;;;;13.43;6.93;;;;;;;;;;5114772;27;20039;-72
2023/03/17 11:40:59;;;;;;;13.35;7.65;;;;;;;;;;5113872;27;20054;-72
2023/03/17 11:44:14;;;;;;;11.40;6.85;;;14.70;99.90;;;;;;5114340;27;20031;-73
2023/03/17 11:46:47;;;;;;;13.65;7.05;;;;;;;;;;5093530;27;20050;-72
2023/03/17 11:49:17;;;;;;;10.80;6.80;;;;;;;;;;5106368;27;20481;-72
2023/03/17 11:51:55;;;;;;;11.45;6.90;;;;;;;;;;5114937;27;20127;-72
2023/03/17 11:54:34;;;;;;;13.95;7.93;;;;;;;;;;5099139;27;20074;-72
2023/03/17 11:57:06;;;;;;;12.02;7.43;;;;;;;;;;5114938;27;20549;-72
2023/03/17 11:59:39;;;;;;;12.50;7.53;;;;;;;;;;5115792;27;20054;-72
2023/03/17 12:02:06;;;;;;;12.35;7.70;;;;;;;;;;5150870;27;20083;-72
2023/03/17 12:04:35;;;;;;;12.55;8.15;;;;;;;;;;5116166;27;20042;-72
2023/03/17 12:07:06;;;;;;;14.50;7.60;;;;;;;;;;5116078;28;20104;-73
2023/03/17 12:09:36;;;;;;;16.98;7.97;;;;;;;;;;5133177;27;20359;-73
2023/03/17 12:12:03;;;;;;;14.05;7.60;;;;;;;;;;5134302;27;20100;-72
2023/03/17 12:14:40;;;;;;;14.52;8.35;;;;;;;;;;5115778;28;20070;-72
2023/03/17 12:17:12;;;;;;;13.57;8.25;;;;;;;;;;5115820;28;20043;-72
2023/03/17 12:19:57;;;;;;;13.65;7.75;;;;;;;;;;5116021;28;20375;-72
2023/03/17 12:22:45;;;;;;;12.80;7.75;;;;;;;;;;5115738;28;20047;-72
2023/03/17 12:25:15;;;;;;;15.60;8.88;;;;;;;;;;5102771;28;20116;-72
2023/03/17 12:27:59;;;;;;;12.27;7.85;;;;;;;;;;5132699;28;20039;-72
2023/03/17 12:30:25;;;;;;;15.70;7.97;;;;;;;;;;5117414;27;20035;-72
2023/03/17 12:33:06;;;;;;;13.20;8.27;;;;;;;;;;5136919;27;20035;-72
2023/03/17 12:35:35;;;;;;;18.00;8.13;;;14.90;99.90;;;;;;5137145;27;20066;-72
2023/03/17 12:38:05;;;;;;;14.18;8.23;;;;;;;;;;5119897;27;20035;-73
2023/03/17 12:40:32;;;;;;;14.63;7.82;;;;;;;;;;5119738;27;20039;-72
2023/03/17 12:43:27;;;;;;;13.43;8.82;;;;;;;;;;5137039;27;20382;-72
2023/03/17 12:45:53;;;;;;;16.23;7.97;;;;;;;;;;5098043;27;20092;-72
2023/03/17 12:48:20;;;;;;;16.77;9.05;;;;;;;;;;5119221;27;20038;-72
2023/03/17 12:50:49;;;;;;;14.43;8.23;;;;;;;;;;5117738;27;20051;-72
2023/03/17 12:53:28;;;;;;;13.23;8.57;;;;;;;;;;5119334;27;20039;-72
2023/03/17 12:55:56;;;;;;;13.40;8.55;;;;;;;;;;5117429;27;20039;-74
2023/03/17 12:58:25;;;;;;;12.57;8.88;;;;;;;;;;5127577;27;20155;-72
2023/03/17 13:01:04;;;;;;;13.55;8.05;;;;;;;;;;5118364;27;20035;-73
2023/03/17 13:03:32;;;;;;;14.57;8.82;;;;;;;;;;5118663;27;20035;-72
2023/03/17 13:06:03;;;;;;;13.82;8.75;;;;;;;;;;5118520;27;20080;-72
2023/03/17 13:08:31;;;;;;;18.10;8.93;;;;;;;;;;5099337;27;20050;-72
2023/03/17 13:11:18;;;;;;;11.93;7.88;;;;;;;;;;5118537;27;20125;-72
2023/03/17 13:13:44;;;;;;;15.38;8.43;;;;;;;;;;5128099;27;20051;-72
2023/03/17 13:16:26;;;;;;;14.32;8.70;;;;;;;;;;5118510;27;20069;-72
2023/03/17 13:19:06;;;;;;;14.02;8.38;;;;;;;;;;5117912;27;20039;-73
2023/03/17 13:21:32;;;;;;;14.57;8.35;;;;;;;;;;5117532;27;20487;-72
2023/03/17 13:24:18;;;;;;;14.30;8.40;;;;;;;;;;5117438;27;20482;-72
2023/03/17 13:26:52;;;;;;;14.48;8.23;;;;;;;;;;5117965;27;20122;-72
2023/03/17 13:29:26;;;;;;;16.63;7.50;;;;;;;;;;5117820;27;20122;-72
2023/03/17 13:31:52;;;;;;;13.88;8.35;;;;;;;;;;5117422;27;20084;-73
2023/03/17 13:34:20;;;;;;;15.32;8.45;;;;;;;;;;5101756;27;20395;-72
2023/03/17 13:36:46;;;;;;;14.70;8.35;;;;;;;;;;5100883;27;20039;-73
2023/03/17 13:39:21;;;;;;;11.00;7.75;;;;;;;;;;5118460;27;20042;-73
2023/03/17 13:42:05;;;;;;;14.23;8.00;;;;;;;;;;5116888;27;20039;-73
2023/03/17 13:44:31;;;;;;;15.10;8.43;;;;;;;;;;5118100;27;20050;-73
2023/03/17 13:47:11;;;;;;;13.77;7.90;;;;;;;;;;5118225;27;20054;-73
2023/03/17 13:49:37;;;;;;;16.50;8.20;;;;;;;;;;5118078;27;20038;-73
2023/03/17 13:52:14;;;;;;;14.50;9.10;;;;;;;;;;5105049;27;20560;-73
2023/03/17 13:54:49;;;;;;;16.15;8.60;;;17.30;99.90;;;;;;5117937;27;20483;-73
2023/03/17 13:57:24;;;;;;;14.18;9.20;;;;;;;;;;5118035;27;20058;-72
2023/03/17 13:59:50;;;;;;;13.15;8.27;;;;;;;;;;5138788;27;20499;-73
2023/03/17 14:02:24;;;;;;;13.63;8.65;;;;;;;;;;5138849;27;20500;-73
2023/03/17 14:04:56;;;;;;;17.55;8.80;;;;;;;;;;5138477;27;20068;-72
2023/03/17 14:07:25;;;;;;;13.32;8.60;;;;;;;;;;5138863;27;20070;-72
2023/03/17 14:09:52;;;;;;;15.02;8.65;;;;;;;;;;5138481;27;20039;-72
2023/03/17 14:12:25;;;;;;;14.63;8.48;;;;;;;;;;5121708;27;20110;-73
2023/03/17 14:14:54;;;;;;;22.50;9.02;;;;;;;;;;5138308;27;20035;-72
2023/03/17 14:18:15;;;;;;;13.13;8.60;;;16.30;99.90;;;;;;5121266;27;20043;-73
2023/03/17 14:20:51;;;;;;;13.50;8.43;;;;;;;;;;5092325;27;20100;-73
2023/03/17 14:23:17;;;;;;;15.02;9.15;;;;;;;;;;5117822;27;20114;-73
2023/03/17 14:25:44;;;;;;;15.05;8.98;;;;;;;;;;5117668;27;20505;-72
2023/03/17 14:28:12;;;;;;;13.40;8.30;;;;;;;;;;5117884;27;20451;-72
2023/03/17 14:30:38;;;;;;;14.45;8.85;;;;;;;;;;5117866;27;20394;-72
2023/03/17 14:33:06;;;;;;;13.05;9.00;;;;;;;;;;5117717;27;20040;-72
2023/03/17 14:35:33;;;;;;;12.07;8.25;;;;;;;;;;5115253;27;20035;-70
2023/03/17 14:38:00;;;;;;;20.27;9.32;;;;;;;;;;5115181;27;20070;-67
2023/03/17 14:40:28;;;;;;;17.20;9.70;;;;;;;;;;5115055;27;20066;-70
2023/03/17 14:42:54;;;;;;;10.43;8.32;;;;;;;;;;5116452;27;20490;-67